Time;durP1;ratioP1;P1;durP2;ratioP2;P2;SDS_P1;SDS_P2;PMS_P1;PMS_P2;Temp;Humidity;BMP_temperature;BMP_pressure;BME280_temperature;BME280_humidity;BME280_pressure;Samples;Min_cycle;Max_cycle;Signal;HPM_P1;HPM_P2
2023/11/02 00:02:03;;;;;;;10.55;6.05;;;;;;;10.10;68.22;94453.44;5108986;28;20421;-73
2023/11/02 00:04:28;;;;;;;9.73;5.78;;;;;;;10.25;67.55;94453.84;5109785;28;20481;-74
2023/11/02 00:06:55;;;;;;;11.77;6.80;;;;;;;9.81;68.40;94446.38;5109437;28;20066;-73
2023/11/02 00:09:27;;;;;;;10.82;6.85;;;;;;;10.04;68.71;94456.56;5111232;28;20502;-74
2023/11/02 00:11:59;;;;;;;10.60;6.78;;;;;;;10.15;67.66;94450.44;5109514;28;20420;-74
2023/11/02 00:14:26;;;;;;;12.65;6.60;;;;;;;9.88;68.67;94449.25;5109492;28;20064;-73
2023/11/02 00:16:52;;;;;;;9.70;6.53;;;;;;;9.81;69.06;94451.56;5109742;28;20058;-74
2023/11/02 00:19:37;;;;;;;9.50;6.72;;;;;;;9.62;70.14;94435.94;5109370;28;20478;-75
2023/11/02 00:22:08;;;;;;;12.43;6.20;;;;;;;9.59;69.87;94439.59;5092867;28;20376;-75
2023/11/02 00:24:36;;;;;;;8.82;5.90;;;;;;;9.80;69.28;94423.97;5109380;28;20413;-75
2023/11/02 00:27:02;;;;;;;8.75;6.28;;;;;;;9.89;69.20;94411.16;5142997;27;20032;-75
2023/11/02 00:29:28;;;;;;;9.73;6.60;;;;;;;9.89;69.70;94432.75;5109205;28;20111;-74
2023/11/02 00:31:53;;;;;;;10.82;6.60;;;;;;;9.79;69.85;94439.69;5092688;28;20038;-74
2023/11/02 00:34:19;;;;;;;11.25;7.57;;;;;;;9.60;69.84;94438.63;5110473;28;20061;-75
2023/11/02 00:36:45;;;;;;;12.40;7.82;;;;;;;9.76;70.06;94432.16;5109667;28;20032;-75
2023/11/02 00:39:10;;;;;;;10.23;7.15;;;;;;;9.90;69.73;94442.16;5092406;28;20016;-74
2023/11/02 00:41:35;;;;;;;10.65;6.68;;;;;;;9.69;69.73;94436.22;5110559;28;20088;-75
2023/11/02 00:44:01;;;;;;;11.23;7.90;;;;;;;9.62;70.07;94428.16;5092283;28;20051;-74
2023/11/02 00:46:26;;;;;;;11.13;7.30;;;;;;;9.68;70.26;94419.84;5109625;28;20031;-75
2023/11/02 00:48:52;;;;;;;9.77;6.68;;;;;;;9.75;69.90;94423.56;5126248;27;20030;-75
2023/11/02 00:51:24;;;;;;;9.25;6.78;;;;;;;9.57;70.47;94422.53;5109751;28;20027;-75
2023/11/02 00:53:57;;;;;;;13.10;7.55;;;;;;;9.59;70.81;94418.84;5093336;28;20456;-75
2023/11/02 00:56:24;;;;;;;10.07;7.47;;;;;;;9.65;70.72;94417.50;5088266;28;20034;-74
2023/11/02 00:58:51;;;;;;;10.60;7.13;;;;;;;9.44;70.79;94421.91;5108701;28;20024;-75
2023/11/02 01:01:18;;;;;;;9.82;6.85;;;;;;;9.60;70.52;94417.06;5093283;28;20028;-75
2023/11/02 01:03:55;;;;;;;11.45;7.22;;;;;;;9.49;71.05;94409.41;5129893;27;20047;-75
2023/11/02 01:06:27;;;;;;;8.48;6.53;;;;;;;9.47;70.89;94419.06;5097206;28;20023;-75
2023/11/02 01:09:16;;;;;;;10.25;7.13;;;;;;;9.41;71.10;94415.22;5147386;27;20485;-74
2023/11/02 01:11:41;;;;;;;10.95;6.65;;;;;;;9.77;70.75;94419.03;5130532;27;20039;-75
2023/11/02 01:14:42;;;;;;;10.73;7.20;;;;;;;9.82;70.81;94421.25;5092726;28;20024;-75
2023/11/02 01:17:07;;;;;;;10.82;7.63;;;;;;;9.71;69.78;94416.16;5090847;28;20056;-75
2023/11/02 01:19:58;;;;;;;9.15;6.68;;;;;;;9.82;69.96;94424.66;5109540;28;20039;-75
2023/11/02 01:22:29;;;;;;;10.07;7.00;;;;;;;9.81;70.15;94432.59;5093714;28;20046;-75
2023/11/02 01:24:56;;;;;;;9.88;6.60;;;;;;;9.66;70.18;94426.91;5103473;28;20031;-74
2023/11/02 01:27:23;;;;;;;10.48;7.28;;;;;;;9.56;70.42;94423.50;5095870;28;20028;-75
2023/11/02 01:29:49;;;;;;;11.07;7.38;;;;;;;9.46;71.02;94410.47;5095497;28;20028;-74
2023/11/02 01:32:15;;;;;;;9.25;6.68;;;;;;;9.57;70.78;94412.16;5095213;28;20027;-74
2023/11/02 01:34:41;;;;;;;9.13;6.47;;;;;;;9.59;70.58;94407.66;5112185;28;20496;-75
2023/11/02 01:37:06;;;;;;;8.52;6.25;;;;;;;9.49;70.80;94393.84;5113826;28;20031;-75
2023/11/02 01:39:51;;;;;;;9.40;6.53;;;;;;;9.55;71.01;94404.50;5094833;28;20035;-74
2023/11/02 01:42:26;;;;;;;10.25;6.10;;;;;;;9.40;71.39;94406.63;5112630;28;20110;-74
2023/11/02 01:45:21;;;;;;;10.88;5.53;;;;;;;9.53;71.01;94390.03;5096304;28;20040;-75
2023/11/02 01:48:09;;;;;;;9.27;5.95;;;;;;;9.50;70.96;94390.28;5104293;28;20485;-75
2023/11/02 01:50:47;;;;;;;8.32;5.30;;;;;;;9.42;71.41;94378.00;5111882;28;20067;-74
2023/11/02 01:53:39;;;;;;;7.70;4.93;;;;;;;9.21;71.51;94374.63;5093744;28;20118;-74
2023/11/02 01:56:13;;;;;;;8.15;5.38;;;;;;;9.26;72.08;94372.47;5111104;28;20115;-75
2023/11/02 02:02:09;;;;;;;7.75;5.22;;;;;;;9.06;73.52;94371.56;5113192;28;20127;-74
2023/11/02 02:04:40;;;;;;;6.93;4.90;;;;;;;9.29;73.00;94379.97;5130216;27;20114;-75
2023/11/02 02:07:25;;;;;;;7.18;5.00;;;;;;;9.44;72.74;94375.25;5113113;28;20038;-75
2023/11/02 02:10:11;;;;;;;7.95;5.18;;;;;;;9.41;73.67;94376.31;5098143;28;20035;-75
2023/11/02 02:12:46;;;;;;;8.43;5.72;;;;;;;9.57;72.69;94381.03;5111116;28;20519;-74
2023/11/02 02:15:33;;;;;;;7.25;5.05;;;;;;;9.58;72.85;94378.31;5112743;28;20050;-75
2023/11/02 02:18:22;;;;;;;8.27;5.32;;;;;;;9.09;73.12;94373.88;5111701;28;20027;-74
2023/11/02 02:20:49;;;;;;;7.30;5.38;;;;;;;9.51;72.28;94373.78;5104427;28;20124;-75
2023/11/02 02:23:39;;;;;;;7.72;5.10;;;;;;;9.38;72.86;94380.00;5111173;28;20035;-75
2023/11/02 02:26:23;;;;;;;6.55;5.18;;;;;;;9.32;73.12;94369.34;5111881;28;20031;-75
2023/11/02 02:29:26;;;;;;;10.65;5.43;;;;;;;9.50;72.62;94369.53;5110879;28;20413;-74
2023/11/02 02:32:30;;;;;;;10.98;5.38;;;;;;;9.53;71.89;94356.34;5112930;28;20063;-74
2023/11/02 02:35:04;;;;;;;7.97;5.18;;;;;;;9.59;71.45;94340.25;5112323;28;20034;-75
2023/11/02 02:37:38;;;;;;;11.10;7.03;;;;;;;9.50;71.31;94339.28;5108757;28;20478;-74
2023/11/02 02:40:08;;;;;;;10.27;6.45;;;;;;;9.46;71.74;94331.88;5112253;28;20454;-75
2023/11/02 02:42:35;;;;;;;10.50;6.70;;;;;;;9.36;71.72;94308.50;5110947;28;20042;-75
2023/11/02 02:45:03;;;;;;;9.18;6.13;;;;;;;9.58;71.72;94330.81;5094079;28;20449;-74
2023/11/02 02:47:29;;;;;;;9.63;6.53;;;;;;;9.65;72.49;94331.13;5077727;28;20042;-75
2023/11/02 02:49:54;;;;;;;8.10;6.05;;;;;;;9.92;70.85;94312.28;5110988;28;20028;-74
2023/11/02 02:52:22;;;;;;;8.70;6.22;;;;;;;10.11;70.24;94325.28;5110518;28;20047;-75
2023/11/02 02:54:49;;;;;;;7.10;5.30;;;;;;;10.20;69.65;94316.69;5110978;28;20031;-74
2023/11/02 02:57:16;;;;;;;6.78;5.03;;;;;;;9.93;70.28;94327.75;5111652;28;20046;-74
2023/11/02 02:59:42;;;;;;;9.02;5.60;;;;;;;9.92;70.57;94322.69;5093745;28;20027;-74
2023/11/02 03:02:08;;;;;;;8.43;5.85;;;;;;;10.09;69.85;94297.84;5090639;28;20036;-74
2023/11/02 03:04:34;;;;;;;7.22;5.63;;;;;;;10.38;68.24;94292.66;5093818;28;20028;-75
2023/11/02 03:06:59;;;;;;;8.25;5.93;;;;;;;10.13;68.88;94307.81;5110949;28;20042;-75
2023/11/02 03:09:32;;;;;;;10.20;7.32;;;;;;;9.92;70.22;94301.91;5127954;27;20031;-74
2023/11/02 03:12:00;;;;;;;13.48;6.70;;;;;;;9.90;70.94;94299.47;5112052;27;20115;-74
2023/11/02 03:14:25;;;;;;;8.98;5.95;;;;;;;9.68;70.88;94299.72;5124272;27;20490;-74
2023/11/02 03:16:51;;;;;;;7.28;5.68;;;;;;;9.78;71.15;94308.34;5107446;28;20134;-74
2023/11/02 03:19:37;;;;;;;12.55;6.50;;;;;;;10.19;70.24;94329.81;5107376;28;20406;-74
2023/11/02 03:22:03;;;;;;;7.90;5.97;;;;;;;10.12;69.86;94332.13;5134988;27;20042;-74
2023/11/02 03:24:52;;;;;;;8.60;6.07;;;;;;;9.97;70.49;94333.47;5110321;28;20483;-75
2023/11/02 03:27:25;;;;;;;7.75;5.55;;;;;;;9.95;70.91;94333.63;5110217;28;20055;-74
2023/11/02 03:30:06;;;;;;;12.30;6.28;;;;;;;9.93;70.52;94345.09;5093935;28;20027;-75
2023/11/02 03:32:37;;;;;;;11.20;5.72;;;;;;;9.70;71.02;94329.75;5111429;28;20494;-75
2023/11/02 03:35:05;;;;;;;7.80;5.28;;;;;;;9.83;71.79;94345.91;5110298;28;20132;-74
2023/11/02 03:37:39;;;;;;;9.23;5.38;;;;;;;9.95;71.11;94344.00;5110979;28;20032;-75
2023/11/02 03:40:37;;;;;;;10.57;6.07;;;;;;;9.98;71.76;94346.31;5091307;28;20510;-74
2023/11/02 03:43:12;;;;;;;7.53;5.68;;;;;;;9.32;72.84;94343.41;5092841;28;20055;-75
2023/11/02 03:45:46;;;;;;;7.30;5.38;;;;;;;9.35;73.32;94348.34;5093509;28;20042;-75
2023/11/02 03:48:48;;;;;;;8.43;5.63;;;;;;;9.61;72.69;94361.66;5111166;28;20032;-74
2023/11/02 03:51:39;;;;;;;6.57;5.18;;;;;;;9.41;73.90;94373.75;5111454;28;20031;-75
2023/11/02 03:54:19;;;;;;;9.00;5.75;;;;;;;9.65;75.17;94383.78;5110285;28;20126;-74
2023/11/02 03:56:50;;;;;;;10.32;5.50;;;;;;;9.81;74.35;94365.16;5110817;28;20039;-75
2023/11/02 03:59:23;;;;;;;7.93;5.50;;;;;;;9.20;76.06;94360.84;5111064;28;20036;-74
2023/11/02 04:02:25;;;;;;;8.52;5.90;;;;;;;9.28;75.76;94355.84;5109454;28;20028;-74
2023/11/02 04:05:00;;;;;;;8.80;5.88;;;;;;;8.99;76.10;94331.56;5109921;28;20051;-74
2023/11/02 04:07:31;;;;;;;9.00;5.85;;;;;;;9.34;77.52;94354.50;5107401;28;20034;-76
2023/11/02 04:10:07;;;;;;;;;;;;;;;9.23;77.96;94358.00;5089559;28;20096;-74
2023/11/02 04:12:38;;;;;;;6.95;5.82;;;;;;;9.15;78.58;94355.22;5106594;28;19966;-74
2023/11/02 04:15:04;;;;;;;9.13;6.13;;;;;;;9.51;78.49;94355.63;5107926;28;20143;-75
2023/11/02 04:17:29;;;;;;;10.57;6.10;;;;;;;9.38;78.70;94359.25;5088772;28;20039;-76
2023/11/02 04:19:55;;;;;;;10.48;6.47;;;;;;;9.42;78.10;94354.66;5106707;28;20043;-75
2023/11/02 04:22:21;;;;;;;10.50;6.63;;;;;;;9.43;78.53;94353.69;5071262;28;20049;-74
2023/11/02 04:24:46;;;;;;;9.50;6.43;;;;;;;9.49;79.74;94349.75;5107157;28;20036;-75
2023/11/02 04:27:12;;;;;;;10.80;6.50;;;;;;;9.60;79.10;94360.03;5088426;28;20698;-75
2023/11/02 04:29:37;;;;;;;8.18;5.72;;;;;;;9.50;79.26;94366.94;5105882;28;20043;-74
2023/11/02 04:32:03;;;;;;;9.75;5.80;;;;;;;9.54;79.10;94352.78;5069907;28;20019;-74
2023/11/02 04:34:28;;;;;;;8.95;6.28;;;;;;;9.11;80.86;94352.06;5120906;27;20036;-74
2023/11/02 04:36:53;;;;;;;9.80;7.03;;;;;;;9.09;81.21;94342.78;5108550;28;20497;-74
2023/11/02 04:39:22;;;;;;;9.85;7.10;;;;;;;9.15;80.73;94334.50;5111352;28;20067;-73
2023/11/02 04:41:47;;;;;;;9.93;6.75;;;;;;;9.24;80.39;94328.50;5091401;28;20501;-74
2023/11/02 04:44:12;;;;;;;10.10;7.30;;;;;;;9.10;80.60;94328.88;5093093;28;20079;-75
2023/11/02 04:46:38;;;;;;;11.63;7.65;;;;;;;9.00;80.16;94307.28;5076162;28;20032;-75
2023/11/02 04:49:03;;;;;;;10.70;7.50;;;;;;;9.10;80.42;94332.28;5111309;28;20039;-75
2023/11/02 04:51:29;;;;;;;11.02;7.60;;;;;;;9.16;80.68;94346.50;5108371;28;20039;-76
2023/11/02 04:53:56;;;;;;;11.00;8.05;;;;;;;9.06;80.93;94345.66;5108717;28;20024;-74
2023/11/02 04:56:22;;;;;;;10.35;7.35;;;;;;;9.31;81.50;94354.75;5106914;28;20035;-75
2023/11/02 04:58:47;;;;;;;11.18;7.05;;;;;;;9.37;79.03;94359.41;5108039;28;20023;-76
2023/11/02 05:01:12;;;;;;;8.57;7.07;;;;;;;9.45;80.21;94362.16;5109729;27;20324;-75
2023/11/02 05:03:38;;;;;;;13.95;8.77;;;;;;;9.33;80.53;94353.69;5108626;27;20036;-74
2023/11/02 05:06:03;;;;;;;10.00;7.10;;;;;;;9.36;80.88;94356.00;5108721;28;20031;-74
2023/11/02 05:08:29;;;;;;;11.05;7.00;;;;;;;9.26;80.71;94355.13;5110726;28;20166;-74
2023/11/02 05:10:55;;;;;;;9.90;6.55;;;;;;;9.39;79.44;94368.69;5110906;28;20027;-75
2023/11/02 05:13:20;;;;;;;10.32;7.25;;;;;;;8.94;80.81;94353.50;5108715;28;20093;-75
2023/11/02 05:15:46;;;;;;;9.93;6.40;;;;;;;9.07;80.84;94355.03;5091634;28;20536;-77
2023/11/02 05:18:14;;;;;;;9.30;6.88;;;;;;;9.19;80.63;94361.78;5112201;27;20489;-76
2023/11/02 05:20:40;;;;;;;10.80;7.32;;;;;;;8.98;81.09;94364.41;5092752;28;20035;-77
2023/11/02 05:23:07;;;;;;;9.77;7.07;;;;;;;8.89;81.33;94360.81;5108090;28;20550;-76
2023/11/02 05:25:33;;;;;;;9.77;7.75;;;;;;;9.04;81.66;94348.34;5109432;28;20706;-77
2023/11/02 05:27:58;;;;;;;11.48;7.82;;;;;;;9.19;81.74;94361.78;5092175;28;20477;-77
2023/11/02 05:30:23;;;;;;;11.50;8.50;;;;;;;9.23;81.01;94346.81;5109250;28;20543;-76
2023/11/02 05:32:49;;;;;;;13.05;8.23;;;;;;;9.23;81.72;94355.41;5107429;28;20558;-76
2023/11/02 05:35:16;;;;;;;12.20;7.53;;;;;;;9.36;81.27;94330.09;5091016;28;20020;-76
2023/11/02 05:37:41;;;;;;;11.77;8.05;;;;;;;9.64;80.28;94351.03;5088756;28;20202;-76
2023/11/02 05:40:26;;;;;;;10.63;7.63;;;;;;;9.65;79.28;94357.88;5092068;28;20084;-77
2023/11/02 05:42:51;;;;;;;10.13;7.50;;;;;;;9.31;79.61;94295.13;5108322;28;20055;-76
2023/11/02 05:45:18;;;;;;;12.23;8.07;;;;;;;9.36;80.39;94345.63;5110569;28;20030;-76
2023/11/02 05:47:44;;;;;;;10.60;8.02;;;;;;;9.33;80.81;94356.25;5108885;28;20545;-76
2023/11/02 05:50:09;;;;;;;14.57;8.93;;;;;;;9.24;80.96;94336.28;5108600;28;20034;-76
2023/11/02 05:52:35;;;;;;;13.48;9.77;;;;;;;9.10;81.36;94314.13;5107131;28;20047;-77
2023/11/02 05:55:00;;;;;;;15.85;10.05;;;;;;;9.25;81.30;94350.06;5092830;28;20015;-77
2023/11/02 05:57:26;;;;;;;13.10;9.48;;;;;;;9.30;80.86;94356.50;5108652;28;20493;-77
2023/11/02 05:59:51;;;;;;;11.45;8.50;;;;;;;9.27;81.00;94358.53;5108609;28;20670;-77
2023/11/02 06:02:16;;;;;;;12.80;8.50;;;;;;;9.21;81.15;94367.66;5089510;28;20089;-77
2023/11/02 06:04:42;;;;;;;12.38;8.20;;;;;;;9.26;81.12;94364.69;5109095;27;20084;-77
2023/11/02 06:07:07;;;;;;;13.50;8.77;;;;;;;9.31;80.82;94365.13;5108387;27;20023;-76
2023/11/02 06:09:33;;;;;;;27.38;13.00;;;;;;;9.69;79.60;94373.97;5108716;28;20130;-75
2023/11/02 06:11:58;;;;;;;19.48;12.82;;;;;;;9.68;78.35;94374.94;5087876;28;20039;-76
2023/11/02 06:14:23;;;;;;;17.63;10.35;;;;;;;9.50;78.70;94365.19;5110732;28;20042;-75
2023/11/02 06:16:49;;;;;;;14.30;9.35;;;;;;;9.45;79.01;94346.63;5110180;28;20511;-76
2023/11/02 06:19:14;;;;;;;17.20;8.90;;;;;;;9.21;80.13;94349.50;5126918;27;20035;-75
2023/11/02 06:21:40;;;;;;;15.50;9.00;;;;;;;9.01;80.73;94343.44;5109082;28;20032;-76
2023/11/02 06:24:05;;;;;;;12.20;8.90;;;;;;;8.93;81.00;94344.06;5110645;28;20031;-76
2023/11/02 06:26:31;;;;;;;14.20;9.05;;;;;;;8.91;81.41;94335.63;5108367;28;20027;-77
2023/11/02 06:28:56;;;;;;;16.00;9.82;;;;;;;8.82;81.24;94328.59;5108904;28;20023;-76
2023/11/02 06:31:22;;;;;;;14.48;9.77;;;;;;;8.89;81.40;94345.28;5090578;28;20035;-76
2023/11/02 06:33:47;;;;;;;14.68;10.30;;;;;;;8.78;81.65;94319.47;5108453;28;20040;-76
2023/11/02 06:36:12;;;;;;;14.25;9.65;;;;;;;8.81;81.73;94333.91;5108827;28;20036;-76
2023/11/02 06:38:38;;;;;;;12.68;9.57;;;;;;;8.85;81.83;94343.88;5107005;27;20028;-76
2023/11/02 06:41:04;;;;;;;13.25;9.65;;;;;;;8.86;82.38;94355.91;5107331;27;20054;-76
2023/11/02 06:43:29;;;;;;;13.75;8.80;;;;;;;8.83;82.35;94350.97;5091141;28;20056;-76
2023/11/02 06:45:54;;;;;;;12.27;7.95;;;;;;;9.14;81.14;94353.59;5105909;28;20421;-77
2023/11/02 06:48:21;;;;;;;12.63;9.00;;;;;;;9.40;80.07;94341.81;5109585;28;20023;-76
2023/11/02 06:50:49;;;;;;;12.55;8.02;;;;;;;9.42;80.69;94335.66;5109278;28;20092;-74
2023/11/02 06:53:15;;;;;;;33.42;21.52;;;;;;;9.26;80.78;94337.00;5088726;28;20406;-74
2023/11/02 06:55:40;;;;;;;31.75;21.45;;;;;;;9.01;81.95;94321.88;5105567;28;20038;-73
2023/11/02 06:58:06;;;;;;;22.92;15.80;;;;;;;8.78;83.00;94297.94;5090334;28;20067;-74
2023/11/02 07:00:31;;;;;;;19.95;13.75;;;;;;;9.23;82.88;94352.81;5090420;28;20031;-74
2023/11/02 07:02:56;;;;;;;19.27;14.63;;;;;;;9.33;82.83;94351.09;5108910;28;20477;-74
2023/11/02 07:05:22;;;;;;;18.52;12.38;;;;;;;9.28;82.67;94355.84;5088683;28;20057;-74
2023/11/02 07:07:49;;;;;;;15.00;10.10;;;;;;;9.68;80.23;94352.41;5106536;28;20050;-74
2023/11/02 07:10:14;;;;;;;14.85;10.00;;;;;;;9.52;80.43;94355.50;5110096;28;20034;-74
2023/11/02 07:12:40;;;;;;;14.10;10.00;;;;;;;9.38;81.16;94350.66;5075068;28;20027;-73
2023/11/02 07:15:06;;;;;;;14.88;9.80;;;;;;;9.66;79.67;94338.75;5092133;28;20028;-74
2023/11/02 07:17:31;;;;;;;14.38;9.35;;;;;;;9.78;78.81;94345.47;5142886;27;20036;-74
2023/11/02 07:19:57;;;;;;;14.98;9.07;;;;;;;9.64;79.10;94340.66;5107925;28;20028;-74
2023/11/02 07:22:23;;;;;;;13.27;9.63;;;;;;;9.68;79.11;94341.22;5109749;28;20477;-74
2023/11/02 07:24:48;;;;;;;14.85;10.15;;;;;;;9.54;80.38;94324.25;5091795;28;20218;-74
2023/11/02 07:27:13;;;;;;;13.38;9.00;;;;;;;9.75;78.73;94326.75;5108718;28;20034;-74
2023/11/02 07:29:39;;;;;;;17.40;10.43;;;;;;;9.78;79.10;94339.47;5111571;28;20474;-73
2023/11/02 07:32:04;;;;;;;16.85;10.57;;;;;;;9.61;80.39;94336.56;5111719;28;20019;-73
2023/11/02 07:34:30;;;;;;;16.13;10.90;;;;;;;9.48;80.44;94329.97;5112526;27;20030;-73
2023/11/02 07:36:57;;;;;;;19.17;11.50;;;;;;;9.48;81.25;94335.16;5108902;28;20477;-71
2023/11/02 07:39:22;;;;;;;17.15;12.40;;;;;;;9.40;81.39;94315.88;5109182;28;20020;-73
2023/11/02 07:41:48;;;;;;;18.65;10.32;;;;;;;9.39;81.79;94332.41;5091419;28;20072;-73
2023/11/02 07:44:13;;;;;;;16.40;10.07;;;;;;;9.46;81.82;94331.88;5108103;28;20101;-73
2023/11/02 07:46:39;;;;;;;15.70;10.93;;;;;;;9.39;81.56;94314.25;5108274;28;20509;-73
2023/11/02 07:49:05;;;;;;;14.90;11.07;;;;;;;9.58;81.49;94333.41;5107630;28;20455;-72
2023/11/02 07:51:31;;;;;;;15.68;10.90;;;;;;;9.58;81.48;94336.84;5104786;28;20085;-73
2023/11/02 07:53:56;;;;;;;17.23;9.80;;;;;;;9.54;81.70;94329.44;5121870;27;20032;-73
2023/11/02 07:56:21;;;;;;;14.40;10.23;;;;;;;9.63;81.43;94341.59;5105767;28;20031;-73
2023/11/02 07:58:47;;;;;;;18.92;10.77;;;;;;;9.77;81.03;94336.03;5111294;28;20024;-73
2023/11/02 08:01:15;;;;;;;16.05;9.80;;;;;;;9.70;80.54;94334.94;5110330;28;20031;-73
2023/11/02 08:03:40;;;;;;;13.93;8.80;;;;;;;9.97;78.09;94321.34;5093077;28;20142;-73
2023/11/02 08:06:06;;;;;;;11.85;9.07;;;;;;;10.10;77.49;94318.47;5110414;28;20489;-73
2023/11/02 08:08:31;;;;;;;13.77;9.50;;;;;;;10.22;78.62;94338.16;5092877;28;20035;-72
2023/11/02 08:10:57;;;;;;;15.88;9.45;;;;;;;10.05;78.90;94334.44;5110906;28;20080;-73
2023/11/02 08:13:22;;;;;;;11.68;9.07;;;;;;;10.01;79.34;94333.06;5093016;28;20023;-73
2023/11/02 08:15:48;;;;;;;13.18;9.50;;;;;;;10.45;78.63;94327.53;5109816;28;20417;-72
2023/11/02 08:18:13;;;;;;;11.63;8.75;;;;;;;10.31;77.75;94313.19;5092335;28;20040;-73
2023/11/02 08:20:39;;;;;;;13.00;8.95;;;;;;;10.43;77.92;94312.06;5127233;28;20432;-76
2023/11/02 08:23:04;;;;;;;12.77;8.95;;;;;;;10.39;79.59;94317.66;5092450;28;20059;-77
2023/11/02 08:25:30;;;;;;;15.98;11.27;;;;;;;10.41;80.04;94321.75;5109592;28;20027;-77
2023/11/02 08:27:58;;;;;;;14.90;9.57;;;;;;;10.18;80.00;94305.63;5109931;28;20489;-78
2023/11/02 08:30:24;;;;;;;13.52;8.95;;;;;;;10.55;79.87;94324.91;5093864;28;20032;-77
2023/11/02 08:32:54;;;;;;;13.70;9.73;;;;;;;10.65;78.98;94320.53;5075610;28;20039;-78
2023/11/02 08:35:21;;;;;;;11.38;9.10;;;;;;;10.70;77.85;94313.13;5091785;28;20089;-77
2023/11/02 08:37:47;;;;;;;14.38;9.43;;;;;;;10.68;79.44;94304.66;5107960;28;20436;-77
2023/11/02 08:40:12;;;;;;;11.75;8.60;;;;;;;10.87;79.67;94316.78;5091682;28;20039;-75
2023/11/02 08:42:38;;;;;;;13.25;9.07;;;;;;;11.03;80.66;94309.22;5109522;28;20035;-74
2023/11/02 08:45:05;;;;;;;12.18;9.15;;;;;;;11.01;77.56;94305.13;5108738;28;20035;-75
2023/11/02 08:47:30;;;;;;;12.88;8.73;;;;;;;10.81;77.89;94299.97;5110978;28;20161;-75
2023/11/02 08:49:56;;;;;;;12.57;9.23;;;;;;;11.04;76.35;94287.47;5109699;28;20478;-74
2023/11/02 08:52:22;;;;;;;11.90;8.50;;;;;;;10.92;76.98;94296.38;5092946;28;20043;-77
2023/11/02 08:54:48;;;;;;;11.68;8.13;;;;;;;10.89;77.99;94305.28;5110256;28;20362;-77
2023/11/02 08:57:13;;;;;;;14.45;8.45;;;;;;;11.08;77.63;94294.00;5093340;28;20031;-79
2023/11/02 08:59:39;;;;;;;11.73;8.52;;;;;;;11.14;77.03;94264.84;5092803;28;20027;-75
2023/11/02 09:02:05;;;;;;;11.55;8.55;;;;;;;11.26;76.68;94277.66;5092686;28;20047;-76
2023/11/02 09:04:31;;;;;;;15.63;10.10;;;;;;;11.01;77.73;94285.16;5110856;28;20483;-76
2023/11/02 09:06:57;;;;;;;11.65;9.20;;;;;;;11.08;77.88;94287.97;5109598;28;20043;-75
2023/11/02 09:09:22;;;;;;;12.23;8.15;;;;;;;10.97;77.32;94278.56;5092358;28;20027;-75
2023/11/02 09:11:48;;;;;;;13.13;9.40;;;;;;;10.92;78.00;94278.19;5109471;28;20482;-76
2023/11/02 09:14:13;;;;;;;14.38;10.07;;;;;;;10.99;78.87;94288.84;5109537;28;20392;-76
2023/11/02 09:16:38;;;;;;;13.27;9.07;;;;;;;11.01;78.67;94287.75;5110773;28;20459;-76
2023/11/02 09:19:04;;;;;;;13.43;9.43;;;;;;;11.13;78.25;94286.59;5110518;28;20032;-76
2023/11/02 09:21:30;;;;;;;13.60;9.95;;;;;;;10.98;78.75;94280.25;5075787;28;20043;-75
2023/11/02 09:23:56;;;;;;;12.88;9.77;;;;;;;10.95;78.41;94280.53;5095551;28;20019;-76
2023/11/02 09:26:21;;;;;;;11.60;9.10;;;;;;;11.09;78.09;94281.84;5096147;28;20063;-75
2023/11/02 09:28:48;;;;;;;12.40;8.80;;;;;;;11.11;77.36;94275.50;5113043;28;20027;-76
2023/11/02 09:31:14;;;;;;;12.48;8.73;;;;;;;11.22;77.11;94263.31;5113190;28;20081;-76
2023/11/02 09:33:40;;;;;;;14.30;8.75;;;;;;;11.15;76.74;94244.88;5096020;28;20032;-78
2023/11/02 09:36:06;;;;;;;10.82;8.02;;;;;;;11.62;75.48;94255.16;5113794;28;20024;-77
2023/11/02 09:38:32;;;;;;;12.60;8.70;;;;;;;11.62;75.20;94250.75;5114637;28;20104;-77
2023/11/02 09:40:57;;;;;;;12.50;8.38;;;;;;;11.33;75.95;94239.69;5113455;28;20020;-76
2023/11/02 09:43:23;;;;;;;12.60;8.73;;;;;;;11.18;77.04;94245.38;5095841;28;20493;-77
2023/11/02 09:45:49;;;;;;;13.40;10.05;;;;;;;11.11;77.38;94217.50;5096662;28;20405;-77
2023/11/02 09:48:14;;;;;;;12.77;9.07;;;;;;;11.54;77.58;94242.06;5113201;28;20035;-78
2023/11/02 09:50:40;;;;;;;13.35;9.30;;;;;;;11.44;77.91;94229.09;5096093;28;20031;-77
2023/11/02 09:53:06;;;;;;;13.93;9.85;;;;;;;11.46;77.54;94223.75;5114083;28;20076;-78
2023/11/02 09:55:32;;;;;;;14.07;9.70;;;;;;;11.51;76.89;94226.75;5114729;28;20053;-77
2023/11/02 09:57:57;;;;;;;13.10;10.18;;;;;;;11.54;77.09;94231.66;5095965;28;20040;-77
2023/11/02 10:00:23;;;;;;;14.32;9.95;;;;;;;11.40;77.06;94220.78;5096203;28;20497;-77
2023/11/02 10:02:49;;;;;;;13.27;9.15;;;;;;;11.52;76.37;94220.56;5095504;28;20554;-77
2023/11/02 10:05:15;;;;;;;10.57;8.38;;;;;;;11.92;76.56;94203.72;5095998;28;20029;-77
2023/11/02 10:07:40;;;;;;;15.68;8.50;;;;;;;11.93;76.58;94208.78;5095402;27;20037;-77
2023/11/02 10:10:07;;;;;;;14.35;9.43;;;;;;;12.08;76.31;94203.84;5133785;27;20027;-77
2023/11/02 10:12:36;;;;;;;13.30;9.35;;;;;;;11.77;74.72;94214.63;5115841;27;20492;-77
2023/11/02 10:15:06;;;;;;;14.30;9.00;;;;;;;11.58;74.94;94188.75;5133469;27;20053;-77
2023/11/02 10:17:38;;;;;;;15.18;10.40;;;;;;;11.86;74.69;94202.53;5099157;27;20027;-77
2023/11/02 10:20:17;;;;;;;17.50;10.88;;;;;;;11.92;75.43;94206.31;5116408;27;20050;-77
2023/11/02 10:22:44;;;;;;;15.32;10.43;;;;;;;12.06;75.24;94198.81;5133017;27;20060;-77
2023/11/02 10:25:13;;;;;;;11.32;8.40;;;;;;;12.16;74.48;94203.13;5115978;27;20030;-77
2023/11/02 10:27:41;;;;;;;13.15;8.90;;;;;;;12.18;74.58;94190.78;5115935;27;20497;-77
2023/11/02 10:30:07;;;;;;;12.18;8.93;;;;;;;12.21;74.35;94193.06;5132833;27;20030;-77
2023/11/02 10:32:32;;;;;;;12.85;8.95;;;;;;;12.40;74.30;94192.88;5115596;27;20039;-77
2023/11/02 10:34:58;;;;;;;12.50;8.90;;;;;;;12.35;73.93;94187.31;5132058;27;20027;-77
2023/11/02 10:37:31;;;;;;;11.13;8.85;;;;;;;12.21;73.49;94182.66;5132700;27;20035;-77
2023/11/02 10:39:56;;;;;;;14.65;9.48;;;;;;;12.15;73.49;94180.66;5098388;27;20031;-77
2023/11/02 10:42:24;;;;;;;17.63;10.57;;;;;;;12.10;73.27;94185.50;5115341;27;20038;-77
2023/11/02 10:44:49;;;;;;;14.32;9.57;;;;;;;12.12;72.78;94197.41;5098541;27;20115;-77
2023/11/02 10:47:15;;;;;;;15.55;9.38;;;;;;;12.28;72.09;94196.69;5115724;27;20557;-77
2023/11/02 10:49:40;;;;;;;15.25;9.68;;;;;;;12.21;72.68;94200.88;5098202;27;20035;-77
2023/11/02 10:52:11;;;;;;;13.30;8.45;;;;;;;12.39;71.61;94188.63;5132653;27;20412;-78
2023/11/02 10:54:46;;;;;;;;;;;;;;;12.38;71.09;94192.19;5116133;27;20031;-77
2023/11/02 10:57:15;;;;;;;12.70;8.48;;;;;;;12.35;70.78;94187.31;5133175;27;19915;-77
2023/11/02 10:59:41;;;;;;;14.55;8.40;;;;;;;12.19;71.73;94189.78;5115221;27;20027;-77
2023/11/02 11:02:08;;;;;;;14.85;8.70;;;;;;;12.31;72.21;94185.94;5132141;27;20066;-77
2023/11/02 11:04:34;;;;;;;12.07;7.88;;;;;;;12.38;72.80;94197.41;5114708;27;20031;-77
2023/11/02 11:06:59;;;;;;;12.65;8.70;;;;;;;12.35;72.27;94170.88;5114694;27;20083;-77
2023/11/02 11:09:25;;;;;;;11.77;8.20;;;;;;;12.64;72.29;94188.75;5115016;27;20413;-77
2023/11/02 11:11:50;;;;;;;12.18;9.27;;;;;;;12.53;71.73;94195.88;5131849;27;20023;-77
2023/11/02 11:14:16;;;;;;;11.35;8.00;;;;;;;12.52;74.16;94185.63;5114578;27;20027;-77
2023/11/02 11:16:41;;;;;;;12.00;8.65;;;;;;;12.73;74.54;94185.22;5131663;27;20525;-77
2023/11/02 11:19:08;;;;;;;11.55;8.57;;;;;;;12.66;74.62;94165.97;5114433;27;20027;-77
2023/11/02 11:21:34;;;;;;;13.18;8.95;;;;;;;12.72;73.59;94179.19;5131447;27;20140;-76
2023/11/02 11:24:09;;;;;;;12.48;8.93;;;;;;;12.57;74.65;94152.09;5131460;27;20023;-76
2023/11/02 11:26:48;;;;;;;11.45;8.02;;;;;;;12.52;76.13;94170.78;5131621;27;20076;-77
2023/11/02 11:29:36;;;;;;;12.68;8.50;;;;;;;12.64;76.22;94173.13;5114064;27;20042;-77
2023/11/02 11:32:03;;;;;;;13.85;8.75;;;;;;;12.62;75.61;94162.88;5131333;27;20031;-77
2023/11/02 11:34:53;;;;;;;13.55;9.30;;;;;;;12.65;76.37;94161.75;5114335;27;20515;-77
2023/11/02 11:37:44;;;;;;;14.77;10.93;;;;;;;12.70;74.91;94159.47;5132328;27;20088;-77
2023/11/02 11:40:24;;;;;;;17.60;10.98;;;;;;;12.60;75.88;94153.59;5114442;27;20033;-77
2023/11/02 11:42:58;;;;;;;12.23;9.10;;;;;;;12.59;76.57;94151.94;5132170;27;20055;-77
2023/11/02 11:45:36;;;;;;;11.48;8.80;;;;;;;12.70;75.83;94139.47;5114211;27;20034;-76